GRZ540 Details

Departure: Yellowknife Airport (CYZF)
Arrival: Ted Stevens Anchorage International Airport (PANC) at N/A
Route: YZF268095 63N20 YWY NCA17 ORT J124 GKN PTERS3
Notes:


Current Weather Information
CYZF 231300Z 34007KT 12SM OVC004 M01/M01 A3018 RMK ST8 SLP236
PANC 231353Z 31005KT 10SM SCT050 OVC060 04/01 A2928 RMK AO2 SLP917 T00390011